createdAt,value
2019-02-22T06:21:17.011Z,1.
2019-02-22T06:23:38.441Z,1.
2019-02-22T06:24:38.425Z,1.
2019-02-22T06:31:38.376Z,1.
2019-02-22T06:41:38.240Z,1.
2019-02-22T06:44:00.688Z,1.
2019-02-22T06:45:00.680Z,1.
2019-02-22T06:48:00.644Z,0.
2019-02-22T06:49:00.640Z,0.
2019-02-22T06:50:00.658Z,1.00
2019-02-22T06:51:00.622Z,1.00
2019-02-22T06:52:00.601Z,0.
2019-02-22T06:53:00.597Z,1.00
2019-02-22T06:54:00.580Z,1.00
2019-02-22T06:55:00.561Z,1.20
2019-02-22T06:56:00.550Z,0.
2019-02-22T06:57:00.541Z,1.60
2019-02-22T06:58:00.562Z,1.00
2019-02-22T06:59:00.524Z,1.10
2019-02-22T07:00:00.531Z,1.20
2019-02-22T07:01:00.510Z,1.10
2019-02-22T07:02:00.624Z,1.39
2019-02-22T07:03:00.531Z,1.10
2019-02-22T07:04:00.479Z,1.20
2019-02-22T07:05:00.466Z,1.20
2019-02-22T07:06:00.462Z,1.39
2019-02-22T07:07:00.433Z,1.10
2019-02-22T07:08:00.414Z,1.79
2019-02-22T07:09:00.465Z,1.50
2019-02-22T07:10:00.418Z,1.20
2019-02-22T07:11:00.472Z,1.20
2019-02-22T07:12:00.367Z,1.20
2019-02-22T07:13:00.382Z,1.00
2019-02-22T07:14:00.345Z,1.10
2019-02-22T07:15:00.386Z,1.20
2019-02-22T07:16:00.322Z,1.10
2019-02-22T07:17:00.429Z,1.50
2019-02-22T07:18:00.327Z,1.10
2019-02-22T07:19:00.305Z,1.10
2019-02-22T07:20:00.397Z,1.39
2019-02-22T07:21:00.346Z,1.20
2019-02-22T07:22:00.278Z,1.79
2019-02-22T07:23:00.251Z,1.10
2019-02-22T07:24:02.650Z,1.50
2019-02-22T07:25:00.225Z,1.10
2019-02-22T07:26:00.367Z,1.20
2019-02-22T07:27:00.218Z,1.10
2019-02-22T07:28:00.217Z,1.29
2019-02-22T07:29:00.216Z,1.39
2019-02-22T07:30:00.343Z,1.20
2019-02-22T07:31:00.164Z,1.10
2019-02-22T07:32:05.759Z,1.70
2019-02-22T07:33:21.707Z,1.00
2019-02-22T07:34:21.603Z,1.20
2019-02-22T07:35:21.584Z,1.10
2019-02-22T07:36:21.576Z,1.10
2019-02-22T07:37:21.583Z,1.10
2019-02-22T07:38:21.564Z,1.20
2019-02-22T07:39:27.809Z,1.29
2019-02-22T07:40:43.553Z,0.
2019-02-22T07:41:43.541Z,1.00
2019-02-22T07:42:43.535Z,1.10
2019-02-22T07:43:43.523Z,1.20
2019-02-22T07:44:43.531Z,1.20
2019-02-22T07:45:43.516Z,1.10
2019-02-22T07:46:43.490Z,1.10
2019-02-22T07:47:43.477Z,1.39
2019-02-22T07:48:43.468Z,1.10
2019-02-22T07:49:43.473Z,1.90
2019-02-22T07:50:43.491Z,1.10
2019-02-22T07:51:43.455Z,1.50
2019-02-22T07:52:45.274Z,1.29
2019-02-22T07:53:43.937Z,1.39
2019-02-22T07:54:43.462Z,1.39
2019-02-22T07:55:44.113Z,1.39
2019-02-22T07:57:04.544Z,1.50
2019-02-22T07:58:15.593Z,1.29
2019-02-22T07:59:32.733Z,1.20
2019-02-22T08:00:32.719Z,1.20
2019-02-22T08:01:47.448Z,1.29
2019-02-22T14:01:47.457Z,2.50
2019-02-22T14:02:47.486Z,2.40
2019-02-22T14:03:48.072Z,2.09
2019-02-22T14:04:47.410Z,2.20
2019-02-22T14:05:47.471Z,2.09
2019-02-22T14:06:47.400Z,2.29
2019-02-22T14:07:47.382Z,2.20
2019-02-22T14:08:47.374Z,2.09
2019-02-22T14:09:47.360Z,2.00
2019-02-22T14:10:47.342Z,2.29
2019-02-22T14:11:47.331Z,2.09
2019-02-22T14:12:47.323Z,2.20
2019-02-22T14:13:47.328Z,2.29
2019-02-22T14:14:47.297Z,2.00
2019-02-22T14:15:47.280Z,2.00
2019-02-22T14:16:47.287Z,2.29
2019-02-22T14:17:47.367Z,2.20
2019-02-22T14:18:47.252Z,2.20
2019-02-22T14:19:47.236Z,2.09
2019-02-22T14:20:47.230Z,2.40
2019-02-22T14:21:47.214Z,2.09
2019-02-22T14:22:47.226Z,2.09
2019-02-22T14:23:47.210Z,2.09
2019-02-22T14:24:47.251Z,1.79
2019-02-22T14:25:47.179Z,2.00
2019-02-22T14:26:47.248Z,1.90
2019-02-22T14:27:47.149Z,2.00
2019-02-22T14:28:47.202Z,2.20
2019-02-22T14:29:47.151Z,2.00
2019-02-22T14:30:47.139Z,1.79
2019-02-22T14:31:47.138Z,2.00
2019-02-22T14:32:47.155Z,1.90
2019-02-22T14:33:47.141Z,2.09
2019-02-22T14:34:47.083Z,1.90
2019-02-22T14:35:47.075Z,2.09
2019-02-22T14:36:47.249Z,1.90
2019-02-22T14:37:47.083Z,1.90
2019-02-22T14:38:47.164Z,2.00
2019-02-22T14:39:47.044Z,2.09
2019-02-22T14:40:47.032Z,1.90
2019-02-22T14:41:47.028Z,2.20
2019-02-22T14:42:46.992Z,1.90
2019-02-22T14:43:48.476Z,2.50
2019-02-22T14:44:47.116Z,1.79
2019-02-22T14:45:52.148Z,1.90
2019-02-22T14:47:09.764Z,1.50
2019-02-22T14:48:09.659Z,1.50
2019-02-22T14:49:09.664Z,2.00
2019-02-22T14:50:09.641Z,2.09
2019-02-22T14:51:09.646Z,1.79
2019-02-22T14:52:09.631Z,1.90
2019-02-22T14:53:19.144Z,1.79
2019-02-22T14:54:31.712Z,1.79
2019-02-22T14:55:31.360Z,1.90
2019-02-22T14:56:31.356Z,1.79
2019-02-22T14:57:31.336Z,1.79
2019-02-22T14:58:31.340Z,2.00
2019-02-22T14:59:31.318Z,1.79
2019-02-22T15:00:31.308Z,1.79
2019-02-22T15:01:31.292Z,1.90
2019-02-22T15:02:31.287Z,1.79
2019-02-22T15:03:31.375Z,1.79
2019-02-22T15:04:31.265Z,1.79
2019-02-22T15:05:31.266Z,2.00
2019-02-22T15:06:31.231Z,1.90
2019-02-22T15:07:31.220Z,1.90
2019-02-22T15:08:31.215Z,1.70
2019-02-22T15:09:31.201Z,1.79
2019-02-22T15:10:31.202Z,1.90
2019-02-22T15:11:31.400Z,1.79
2019-02-22T15:12:31.208Z,1.70
2019-02-22T15:13:31.161Z,1.70
2019-02-22T15:14:31.178Z,1.79
2019-02-22T15:15:31.126Z,1.79
2019-02-22T15:16:31.127Z,1.79
2019-02-22T15:17:31.134Z,1.60
2019-02-22T15:18:31.094Z,1.50
2019-02-22T15:19:31.079Z,1.70
2019-02-22T15:20:31.073Z,1.90
2019-02-22T15:21:31.076Z,1.90
2019-02-22T15:22:31.055Z,1.79
2019-02-22T15:23:31.048Z,1.79
2019-02-22T15:24:32.932Z,1.70
2019-02-22T15:25:31.012Z,1.79
2019-02-22T15:26:31.189Z,1.79
2019-02-22T15:27:31.081Z,1.60
2019-02-22T15:28:30.996Z,1.90
2019-02-22T15:29:30.979Z,1.50
2019-02-22T15:30:30.982Z,1.60
2019-02-22T15:31:36.183Z,1.70
2019-02-22T15:32:30.945Z,2.00
2019-02-22T15:33:30.922Z,1.70
2019-02-22T15:34:30.920Z,1.60
2019-02-22T15:35:30.913Z,1.79
2019-02-22T15:36:30.893Z,1.60
2019-02-22T15:37:30.885Z,1.70
2019-02-22T15:38:30.876Z,1.50
2019-02-22T15:39:30.866Z,1.60
2019-02-22T15:40:30.860Z,1.70
2019-02-22T15:41:30.843Z,1.60
2019-02-22T15:42:30.890Z,1.90
2019-02-22T15:43:30.835Z,1.60
2019-02-22T15:44:30.802Z,1.50
2019-02-22T15:45:30.921Z,1.60
2019-02-22T15:46:30.785Z,1.90
2019-02-22T15:47:30.788Z,1.70
2019-02-22T15:48:30.768Z,1.90
2019-02-22T15:49:30.749Z,1.50
2019-02-22T15:50:30.730Z,1.39
2019-02-22T15:51:30.725Z,1.70
2019-02-22T15:52:30.715Z,1.60
2019-02-22T15:53:30.725Z,1.70
2019-02-22T15:54:30.720Z,1.60
2019-02-22T15:55:30.681Z,1.79
2019-02-22T15:56:30.670Z,1.70
2019-02-22T15:57:30.656Z,1.60
2019-02-22T15:58:30.647Z,1.79
2019-02-22T15:59:30.639Z,1.60
2019-02-22T16:00:30.629Z,1.50
2019-02-22T16:01:30.627Z,1.60
2019-02-22T16:02:30.604Z,1.50
2019-02-22T16:03:30.589Z,1.60
2019-02-22T16:04:30.578Z,1.70
2019-02-22T16:05:30.569Z,1.70
2019-02-22T16:06:32.291Z,1.79
2019-02-22T16:07:30.543Z,1.79
2019-02-22T16:08:30.531Z,1.70
2019-02-22T16:09:30.522Z,1.90
2019-02-22T16:10:30.506Z,1.50
2019-02-22T16:11:31.368Z,1.60
2019-02-22T16:12:30.485Z,1.60
2019-02-22T16:13:30.467Z,1.50
2019-02-22T16:14:30.461Z,1.70
2019-02-22T16:15:30.451Z,1.50
2019-02-22T16:16:30.445Z,1.39
2019-02-22T16:17:30.447Z,1.70
2019-02-22T16:18:30.424Z,1.50
2019-02-22T16:19:30.406Z,1.20
2019-02-22T16:20:30.397Z,1.50
2019-02-22T16:21:30.382Z,1.39
2019-02-22T16:22:30.372Z,1.60
2019-02-22T16:23:30.361Z,1.39
2019-02-22T16:24:30.342Z,1.39
2019-02-22T16:25:30.334Z,1.90
2019-02-22T16:26:30.328Z,1.50
2019-02-22T16:27:30.315Z,1.20
2019-02-22T16:28:30.306Z,1.50
2019-02-22T16:29:30.300Z,1.39
2019-02-22T16:30:30.298Z,1.39
2019-02-22T16:31:30.272Z,1.29
2019-02-22T16:32:30.311Z,1.39
2019-02-22T16:33:30.244Z,1.29
2019-02-22T16:34:30.251Z,1.39
2019-02-22T16:35:30.225Z,1.39
2019-02-22T16:36:30.221Z,1.39
2019-02-22T16:37:30.205Z,1.29
2019-02-22T16:38:30.184Z,1.29
2019-02-22T16:39:30.181Z,1.39
2019-02-22T16:40:30.165Z,1.29
2019-02-22T16:41:30.169Z,1.39
2019-02-22T16:42:30.213Z,1.29
2019-02-22T16:43:30.138Z,1.29
2019-02-22T16:44:30.129Z,1.29
2019-02-22T16:45:30.119Z,1.29
2019-02-22T16:46:34.957Z,1.29
2019-02-22T16:47:39.525Z,1.20
2019-02-22T16:48:52.501Z,1.39
2019-02-22T16:49:52.493Z,1.
2019-02-22T16:50:52.476Z,1.
2019-02-22T16:51:52.522Z,1.
2019-02-22T16:52:52.487Z,1.
2019-02-22T16:53:52.446Z,1.
2019-02-22T16:54:52.436Z,1.
2019-02-22T16:55:52.444Z,1.
2019-02-22T16:56:52.407Z,1.
2019-02-22T16:57:52.454Z,1.
2019-02-22T16:58:52.399Z,1.
2019-02-22T16:59:52.461Z,1.
2019-02-22T17:00:52.384Z,1.
2019-02-22T17:01:52.409Z,1.
2019-02-22T17:02:52.336Z,1.
2019-02-22T17:03:52.324Z,1.
2019-02-22T17:04:52.361Z,1.
2019-02-22T17:05:52.306Z,1.
2019-02-22T17:06:52.293Z,1.
2019-02-22T17:07:52.298Z,1.
2019-02-22T17:08:52.353Z,1.
2019-02-22T17:09:52.448Z,1.
2019-02-22T17:10:52.251Z,1.
2019-02-22T17:11:52.240Z,1.
2019-02-22T17:12:52.221Z,1.
2019-02-22T17:13:52.209Z,1.
2019-02-22T17:14:52.206Z,1.
2019-02-22T17:15:52.184Z,1.
2019-02-22T17:16:52.185Z,1.
2019-02-22T17:17:52.165Z,1.
2019-02-22T17:18:52.167Z,1.
2019-02-22T17:19:52.149Z,1.
2019-02-22T17:20:52.140Z,1.
